sensor_id;sensor_type;location;lat;lon;timestamp;temperature;humidity
75262;DHT22;63859;51.064;4.580;2023-12-28T00:00:42;10.30;99.90
75262;DHT22;63859;51.064;4.580;2023-12-28T00:03:08;10.30;99.90
75262;DHT22;63859;51.064;4.580;2023-12-28T00:05:34;10.30;99.90
75262;DHT22;63859;51.064;4.580;2023-12-28T00:07:59;10.20;99.90
75262;DHT22;63859;51.064;4.580;2023-12-28T00:10:26;10.30;99.90
75262;DHT22;63859;51.064;4.580;2023-12-28T00:12:53;10.20;99.90
75262;DHT22;63859;51.064;4.580;2023-12-28T00:15:18;10.20;99.90
75262;DHT22;63859;51.064;4.580;2023-12-28T00:17:44;10.10;99.90
75262;DHT22;63859;51.064;4.580;2023-12-28T00:20:10;10.20;99.90
75262;DHT22;63859;51.064;4.580;2023-12-28T00:22:36;10.20;99.90
75262;DHT22;63859;51.064;4.580;2023-12-28T00:25:05;10.20;99.90
75262;DHT22;63859;51.064;4.580;2023-12-28T00:27:31;10.20;99.90
75262;DHT22;63859;51.064;4.580;2023-12-28T00:29:56;10.30;99.90
75262;DHT22;63859;51.064;4.580;2023-12-28T00:32:45;10.30;99.90
75262;DHT22;63859;51.064;4.580;2023-12-28T00:35:11;10.30;99.90
75262;DHT22;63859;51.064;4.580;2023-12-28T00:37:37;10.30;99.90
75262;DHT22;63859;51.064;4.580;2023-12-28T00:40:03;10.30;99.90
75262;DHT22;63859;51.064;4.580;2023-12-28T00:42:32;10.30;99.90
75262;DHT22;63859;51.064;4.580;2023-12-28T00:44:58;10.30;99.90
75262;DHT22;63859;51.064;4.580;2023-12-28T00:47:25;10.30;99.90
75262;DHT22;63859;51.064;4.580;2023-12-28T00:49:50;10.30;99.90
75262;DHT22;63859;51.064;4.580;2023-12-28T00:52:16;10.40;99.90
75262;DHT22;63859;51.064;4.580;2023-12-28T00:54:42;10.40;99.90
75262;DHT22;63859;51.064;4.580;2023-12-28T00:57:07;10.40;99.90
75262;DHT22;63859;51.064;4.580;2023-12-28T00:59:33;10.40;99.90
75262;DHT22;63859;51.064;4.580;2023-12-28T01:01:59;10.40;99.90
75262;DHT22;63859;51.064;4.580;2023-12-28T01:04:25;10.40;99.90
75262;DHT22;63859;51.064;4.580;2023-12-28T01:06:52;10.40;99.90
75262;DHT22;63859;51.064;4.580;2023-12-28T01:09:18;10.40;99.90
75262;DHT22;63859;51.064;4.580;2023-12-28T01:11:44;10.40;99.90
75262;DHT22;63859;51.064;4.580;2023-12-28T01:14:10;10.40;99.90
75262;DHT22;63859;51.064;4.580;2023-12-28T01:16:36;10.40;99.90
75262;DHT22;63859;51.064;4.580;2023-12-28T01:19:05;10.50;99.90
75262;DHT22;63859;51.064;4.580;2023-12-28T01:21:30;10.40;99.90
75262;DHT22;63859;51.064;4.580;2023-12-28T01:23:56;10.50;99.90
75262;DHT22;63859;51.064;4.580;2023-12-28T01:26:22;10.50;99.90
75262;DHT22;63859;51.064;4.580;2023-12-28T01:28:47;10.50;99.90
75262;DHT22;63859;51.064;4.580;2023-12-28T01:31:13;10.40;99.90
75262;DHT22;63859;51.064;4.580;2023-12-28T01:33:39;10.40;99.90
75262;DHT22;63859;51.064;4.580;2023-12-28T01:36:17;10.50;99.90
75262;DHT22;63859;51.064;4.580;2023-12-28T01:38:43;10.40;99.90
75262;DHT22;63859;51.064;4.580;2023-12-28T01:41:09;10.50;99.90
75262;DHT22;63859;51.064;4.580;2023-12-28T01:43:35;10.40;99.90
75262;DHT22;63859;51.064;4.580;2023-12-28T01:46:01;10.40;99.90
75262;DHT22;63859;51.064;4.580;2023-12-28T01:48:27;10.50;99.90
75262;DHT22;63859;51.064;4.580;2023-12-28T01:50:54;10.50;99.90
75262;DHT22;63859;51.064;4.580;2023-12-28T01:53:19;10.50;99.90
75262;DHT22;63859;51.064;4.580;2023-12-28T01:55:45;10.50;99.90
75262;DHT22;63859;51.064;4.580;2023-12-28T01:58:11;10.50;99.90
75262;DHT22;63859;51.064;4.580;2023-12-28T02:00:37;10.50;99.90
75262;DHT22;63859;51.064;4.580;2023-12-28T02:03:06;10.50;99.90
75262;DHT22;63859;51.064;4.580;2023-12-28T02:05:33;10.50;99.90
75262;DHT22;63859;51.064;4.580;2023-12-28T02:07:59;10.50;99.90
75262;DHT22;63859;51.064;4.580;2023-12-28T02:10:24;10.50;99.90
75262;DHT22;63859;51.064;4.580;2023-12-28T02:12:50;10.50;99.90
75262;DHT22;63859;51.064;4.580;2023-12-28T02:15:19;10.60;99.90
75262;DHT22;63859;51.064;4.580;2023-12-28T02:17:54;10.50;99.90
75262;DHT22;63859;51.064;4.580;2023-12-28T02:20:21;10.50;99.90
75262;DHT22;63859;51.064;4.580;2023-12-28T02:22:47;10.50;99.90
75262;DHT22;63859;51.064;4.580;2023-12-28T02:25:13;10.50;99.90
75262;DHT22;63859;51.064;4.580;2023-12-28T02:27:45;10.50;99.90
75262;DHT22;63859;51.064;4.580;2023-12-28T02:30:14;10.50;99.90
75262;DHT22;63859;51.064;4.580;2023-12-28T02:35:34;10.50;99.90
75262;DHT22;63859;51.064;4.580;2023-12-28T02:38:08;10.50;99.90
75262;DHT22;63859;51.064;4.580;2023-12-28T02:40:39;10.60;99.90
75262;DHT22;63859;51.064;4.580;2023-12-28T02:43:09;10.60;99.90
75262;DHT22;63859;51.064;4.580;2023-12-28T02:45:36;10.60;99.90
75262;DHT22;63859;51.064;4.580;2023-12-28T02:48:02;10.60;99.90
75262;DHT22;63859;51.064;4.580;2023-12-28T02:50:28;10.70;99.90
75262;DHT22;63859;51.064;4.580;2023-12-28T02:52:56;10.70;99.90
75262;DHT22;63859;51.064;4.580;2023-12-28T02:55:22;10.70;99.90
75262;DHT22;63859;51.064;4.580;2023-12-28T02:57:49;10.60;99.90
75262;DHT22;63859;51.064;4.580;2023-12-28T03:00:16;10.60;99.90
75262;DHT22;63859;51.064;4.580;2023-12-28T03:02:42;10.60;99.90
75262;DHT22;63859;51.064;4.580;2023-12-28T03:05:08;10.60;99.90
75262;DHT22;63859;51.064;4.580;2023-12-28T03:07:34;10.60;99.90
75262;DHT22;63859;51.064;4.580;2023-12-28T03:10:00;10.60;99.90
75262;DHT22;63859;51.064;4.580;2023-12-28T03:12:27;10.60;99.90
75262;DHT22;63859;51.064;4.580;2023-12-28T03:14:53;10.70;99.90
75262;DHT22;63859;51.064;4.580;2023-12-28T03:17:19;10.70;99.90
75262;DHT22;63859;51.064;4.580;2023-12-28T03:19:45;10.70;99.90
75262;DHT22;63859;51.064;4.580;2023-12-28T03:22:10;10.70;99.90
75262;DHT22;63859;51.064;4.580;2023-12-28T03:24:39;10.70;99.90
75262;DHT22;63859;51.064;4.580;2023-12-28T03:27:06;10.70;99.90
75262;DHT22;63859;51.064;4.580;2023-12-28T03:29:32;10.70;99.90
75262;DHT22;63859;51.064;4.580;2023-12-28T03:31:57;10.70;99.90
75262;DHT22;63859;51.064;4.580;2023-12-28T03:34:24;10.70;99.90
75262;DHT22;63859;51.064;4.580;2023-12-28T03:36:52;10.70;99.90
75262;DHT22;63859;51.064;4.580;2023-12-28T03:39:17;10.60;99.90
75262;DHT22;63859;51.064;4.580;2023-12-28T03:41:43;10.60;99.90
75262;DHT22;63859;51.064;4.580;2023-12-28T03:44:09;10.70;99.90
75262;DHT22;63859;51.064;4.580;2023-12-28T03:46:34;10.60;99.90
75262;DHT22;63859;51.064;4.580;2023-12-28T03:49:00;10.70;99.90
75262;DHT22;63859;51.064;4.580;2023-12-28T03:51:26;10.60;99.90
75262;DHT22;63859;51.064;4.580;2023-12-28T03:53:51;10.60;99.90
75262;DHT22;63859;51.064;4.580;2023-12-28T03:56:27;10.60;99.90
75262;DHT22;63859;51.064;4.580;2023-12-28T03:58:53;10.70;99.90
75262;DHT22;63859;51.064;4.580;2023-12-28T04:01:21;10.70;99.90
75262;DHT22;63859;51.064;4.580;2023-12-28T04:03:47;10.70;99.90
75262;DHT22;63859;51.064;4.580;2023-12-28T04:06:14;10.70;99.90
75262;DHT22;63859;51.064;4.580;2023-12-28T04:08:40;10.70;99.90
75262;DHT22;63859;51.064;4.580;2023-12-28T04:11:06;10.70;99.90
75262;DHT22;63859;51.064;4.580;2023-12-28T04:13:32;10.70;99.90
75262;DHT22;63859;51.064;4.580;2023-12-28T04:15:57;10.70;99.90
75262;DHT22;63859;51.064;4.580;2023-12-28T04:18:23;10.70;99.90
75262;DHT22;63859;51.064;4.580;2023-12-28T04:20:49;10.70;99.90
75262;DHT22;63859;51.064;4.580;2023-12-28T04:23:15;10.70;99.90
75262;DHT22;63859;51.064;4.580;2023-12-28T04:25:41;10.70;99.90
75262;DHT22;63859;51.064;4.580;2023-12-28T04:28:07;10.70;99.90
75262;DHT22;63859;51.064;4.580;2023-12-28T04:30:33;10.70;99.90
75262;DHT22;63859;51.064;4.580;2023-12-28T04:32:59;10.60;99.90
75262;DHT22;63859;51.064;4.580;2023-12-28T04:35:25;10.70;99.90
75262;DHT22;63859;51.064;4.580;2023-12-28T04:37:51;10.70;99.90
75262;DHT22;63859;51.064;4.580;2023-12-28T04:40:16;10.70;99.90
75262;DHT22;63859;51.064;4.580;2023-12-28T04:42:43;10.70;99.90
75262;DHT22;63859;51.064;4.580;2023-12-28T04:45:09;10.70;99.90
75262;DHT22;63859;51.064;4.580;2023-12-28T04:47:36;10.70;99.90
75262;DHT22;63859;51.064;4.580;2023-12-28T04:50:03;10.70;99.90
75262;DHT22;63859;51.064;4.580;2023-12-28T04:52:28;10.80;99.90
75262;DHT22;63859;51.064;4.580;2023-12-28T04:54:54;10.80;99.90
75262;DHT22;63859;51.064;4.580;2023-12-28T04:57:20;10.80;99.90
75262;DHT22;63859;51.064;4.580;2023-12-28T04:59:46;10.70;99.90
75262;DHT22;63859;51.064;4.580;2023-12-28T05:02:12;10.80;99.90
75262;DHT22;63859;51.064;4.580;2023-12-28T05:04:37;10.80;99.90
75262;DHT22;63859;51.064;4.580;2023-12-28T05:07:06;10.80;99.90
75262;DHT22;63859;51.064;4.580;2023-12-28T05:09:31;10.70;99.90
75262;DHT22;63859;51.064;4.580;2023-12-28T05:11:57;10.70;99.90
75262;DHT22;63859;51.064;4.580;2023-12-28T05:14:23;10.60;99.90
75262;DHT22;63859;51.064;4.580;2023-12-28T05:16:49;10.60;99.90
75262;DHT22;63859;51.064;4.580;2023-12-28T05:19:15;10.70;99.90
75262;DHT22;63859;51.064;4.580;2023-12-28T05:21:41;10.70;99.90
75262;DHT22;63859;51.064;4.580;2023-12-28T05:24:07;10.70;99.90
75262;DHT22;63859;51.064;4.580;2023-12-28T05:26:32;10.80;99.90
75262;DHT22;63859;51.064;4.580;2023-12-28T05:28:58;10.70;99.90
75262;DHT22;63859;51.064;4.580;2023-12-28T05:31:24;10.70;99.90
75262;DHT22;63859;51.064;4.580;2023-12-28T05:33:50;10.70;99.90
75262;DHT22;63859;51.064;4.580;2023-12-28T05:36:16;10.80;99.90
75262;DHT22;63859;51.064;4.580;2023-12-28T05:38:42;10.70;99.90
75262;DHT22;63859;51.064;4.580;2023-12-28T05:41:09;10.70;99.90
75262;DHT22;63859;51.064;4.580;2023-12-28T05:43:35;10.70;99.90
75262;DHT22;63859;51.064;4.580;2023-12-28T05:46:00;10.70;99.90
75262;DHT22;63859;51.064;4.580;2023-12-28T05:48:26;10.60;99.90
75262;DHT22;63859;51.064;4.580;2023-12-28T05:50:52;10.60;99.90
75262;DHT22;63859;51.064;4.580;2023-12-28T05:53:17;10.60;99.90
75262;DHT22;63859;51.064;4.580;2023-12-28T05:55:43;10.50;99.90
75262;DHT22;63859;51.064;4.580;2023-12-28T05:58:09;10.50;99.90
75262;DHT22;63859;51.064;4.580;2023-12-28T06:00:35;10.50;99.90
75262;DHT22;63859;51.064;4.580;2023-12-28T06:03:07;10.50;99.90
75262;DHT22;63859;51.064;4.580;2023-12-28T06:05:33;10.50;99.90
75262;DHT22;63859;51.064;4.580;2023-12-28T06:07:59;10.50;99.90
75262;DHT22;63859;51.064;4.580;2023-12-28T06:10:24;10.50;99.90
75262;DHT22;63859;51.064;4.580;2023-12-28T06:12:50;10.50;99.90
75262;DHT22;63859;51.064;4.580;2023-12-28T06:15:16;10.50;99.90
75262;DHT22;63859;51.064;4.580;2023-12-28T06:17:42;10.50;99.90
75262;DHT22;63859;51.064;4.580;2023-12-28T06:20:08;10.50;99.90
75262;DHT22;63859;51.064;4.580;2023-12-28T06:22:37;10.40;99.90
75262;DHT22;63859;51.064;4.580;2023-12-28T06:25:03;10.40;99.90
75262;DHT22;63859;51.064;4.580;2023-12-28T06:27:29;10.40;99.90
75262;DHT22;63859;51.064;4.580;2023-12-28T06:29:55;10.40;99.90
75262;DHT22;63859;51.064;4.580;2023-12-28T06:32:20;10.40;99.90
75262;DHT22;63859;51.064;4.580;2023-12-28T06:34:46;10.40;99.90
75262;DHT22;63859;51.064;4.580;2023-12-28T06:37:12;10.30;99.90
75262;DHT22;63859;51.064;4.580;2023-12-28T06:39:39;10.30;99.90
75262;DHT22;63859;51.064;4.580;2023-12-28T06:42:04;10.30;99.90
75262;DHT22;63859;51.064;4.580;2023-12-28T06:44:30;10.30;99.90
75262;DHT22;63859;51.064;4.580;2023-12-28T06:46:56;10.30;99.90
75262;DHT22;63859;51.064;4.580;2023-12-28T06:49:22;10.40;99.90
75262;DHT22;63859;51.064;4.580;2023-12-28T06:51:47;10.40;99.90
75262;DHT22;63859;51.064;4.580;2023-12-28T06:54:16;10.40;99.90
75262;DHT22;63859;51.064;4.580;2023-12-28T06:56:42;10.40;99.90
75262;DHT22;63859;51.064;4.580;2023-12-28T06:59:08;10.30;99.90
75262;DHT22;63859;51.064;4.580;2023-12-28T07:01:41;10.30;99.90
75262;DHT22;63859;51.064;4.580;2023-12-28T07:04:07;10.30;99.90
75262;DHT22;63859;51.064;4.580;2023-12-28T07:06:33;10.30;99.90
75262;DHT22;63859;51.064;4.580;2023-12-28T07:08:58;10.30;99.90
75262;DHT22;63859;51.064;4.580;2023-12-28T07:11:24;10.30;99.90
75262;DHT22;63859;51.064;4.580;2023-12-28T07:13:52;10.20;99.90
75262;DHT22;63859;51.064;4.580;2023-12-28T07:16:17;10.20;99.90
75262;DHT22;63859;51.064;4.580;2023-12-28T07:18:43;10.20;99.90
75262;DHT22;63859;51.064;4.580;2023-12-28T07:21:09;10.20;99.90
75262;DHT22;63859;51.064;4.580;2023-12-28T07:23:37;10.20;99.90
75262;DHT22;63859;51.064;4.580;2023-12-28T07:26:04;10.20;99.90
75262;DHT22;63859;51.064;4.580;2023-12-28T07:28:30;10.10;99.90
75262;DHT22;63859;51.064;4.580;2023-12-28T07:30:55;10.10;99.90
75262;DHT22;63859;51.064;4.580;2023-12-28T07:33:21;10.10;99.90
75262;DHT22;63859;51.064;4.580;2023-12-28T07:35:47;10.10;99.90
75262;DHT22;63859;51.064;4.580;2023-12-28T07:38:12;10.20;99.90
75262;DHT22;63859;51.064;4.580;2023-12-28T07:40:38;10.10;99.90
75262;DHT22;63859;51.064;4.580;2023-12-28T07:43:04;10.10;99.90
75262;DHT22;63859;51.064;4.580;2023-12-28T07:45:30;10.10;99.90
75262;DHT22;63859;51.064;4.580;2023-12-28T07:47:58;10.10;99.90
75262;DHT22;63859;51.064;4.580;2023-12-28T07:50:24;10.00;99.90
75262;DHT22;63859;51.064;4.580;2023-12-28T07:52:50;10.00;99.90
75262;DHT22;63859;51.064;4.580;2023-12-28T07:55:16;10.10;99.90
75262;DHT22;63859;51.064;4.580;2023-12-28T07:57:42;10.10;99.90
75262;DHT22;63859;51.064;4.580;2023-12-28T08:00:08;10.00;99.90
75262;DHT22;63859;51.064;4.580;2023-12-28T08:02:34;10.10;99.90
75262;DHT22;63859;51.064;4.580;2023-12-28T08:04:59;10.00;99.90
75262;DHT22;63859;51.064;4.580;2023-12-28T08:07:25;10.10;99.90
75262;DHT22;63859;51.064;4.580;2023-12-28T08:09:51;10.10;99.90
75262;DHT22;63859;51.064;4.580;2023-12-28T08:12:16;10.00;99.90
75262;DHT22;63859;51.064;4.580;2023-12-28T08:14:43;10.10;99.90
75262;DHT22;63859;51.064;4.580;2023-12-28T08:17:09;10.10;99.90
75262;DHT22;63859;51.064;4.580;2023-12-28T08:19:34;10.10;99.90
75262;DHT22;63859;51.064;4.580;2023-12-28T08:22:00;10.10;99.90
75262;DHT22;63859;51.064;4.580;2023-12-28T08:24:26;10.20;99.90
75262;DHT22;63859;51.064;4.580;2023-12-28T08:26:52;10.20;99.90
75262;DHT22;63859;51.064;4.580;2023-12-28T08:29:18;10.30;99.90
75262;DHT22;63859;51.064;4.580;2023-12-28T08:31:44;10.30;99.90
75262;DHT22;63859;51.064;4.580;2023-12-28T08:34:09;10.40;99.90
75262;DHT22;63859;51.064;4.580;2023-12-28T08:36:35;10.40;99.90
75262;DHT22;63859;51.064;4.580;2023-12-28T08:39:01;10.40;99.90
75262;DHT22;63859;51.064;4.580;2023-12-28T08:41:26;10.40;99.90
75262;DHT22;63859;51.064;4.580;2023-12-28T08:43:53;10.40;99.90
75262;DHT22;63859;51.064;4.580;2023-12-28T08:46:22;10.40;99.90
75262;DHT22;63859;51.064;4.580;2023-12-28T08:48:48;10.40;99.90
75262;DHT22;63859;51.064;4.580;2023-12-28T08:51:13;10.40;99.90
75262;DHT22;63859;51.064;4.580;2023-12-28T08:53:40;10.40;99.90
75262;DHT22;63859;51.064;4.580;2023-12-28T08:56:22;10.40;99.90
75262;DHT22;63859;51.064;4.580;2023-12-28T08:58:49;10.40;99.90
75262;DHT22;63859;51.064;4.580;2023-12-28T09:01:20;10.40;99.90
75262;DHT22;63859;51.064;4.580;2023-12-28T09:03:48;10.40;99.90
75262;DHT22;63859;51.064;4.580;2023-12-28T09:06:14;10.40;99.90
75262;DHT22;63859;51.064;4.580;2023-12-28T09:08:44;10.40;99.90
75262;DHT22;63859;51.064;4.580;2023-12-28T09:11:13;10.50;99.90
75262;DHT22;63859;51.064;4.580;2023-12-28T09:13:40;10.50;99.90
75262;DHT22;63859;51.064;4.580;2023-12-28T09:16:09;10.50;99.90
75262;DHT22;63859;51.064;4.580;2023-12-28T09:18:35;10.60;99.90
75262;DHT22;63859;51.064;4.580;2023-12-28T09:21:04;10.60;99.90
75262;DHT22;63859;51.064;4.580;2023-12-28T09:23:35;10.60;99.90
75262;DHT22;63859;51.064;4.580;2023-12-28T09:26:05;10.60;99.90
75262;DHT22;63859;51.064;4.580;2023-12-28T09:28:32;10.70;99.90
75262;DHT22;63859;51.064;4.580;2023-12-28T09:30:57;10.70;99.90
75262;DHT22;63859;51.064;4.580;2023-12-28T09:33:23;10.80;99.90
75262;DHT22;63859;51.064;4.580;2023-12-28T09:35:49;10.80;99.90
75262;DHT22;63859;51.064;4.580;2023-12-28T09:38:15;10.80;99.90
75262;DHT22;63859;51.064;4.580;2023-12-28T09:40:42;10.70;99.90
75262;DHT22;63859;51.064;4.580;2023-12-28T09:43:35;10.80;99.90
75262;DHT22;63859;51.064;4.580;2023-12-28T09:46:07;10.70;99.90
75262;DHT22;63859;51.064;4.580;2023-12-28T09:48:37;10.70;99.90
75262;DHT22;63859;51.064;4.580;2023-12-28T09:51:04;10.70;99.90
75262;DHT22;63859;51.064;4.580;2023-12-28T09:53:31;10.70;99.90
75262;DHT22;63859;51.064;4.580;2023-12-28T09:55:57;10.70;99.90
75262;DHT22;63859;51.064;4.580;2023-12-28T09:58:24;10.70;99.90
75262;DHT22;63859;51.064;4.580;2023-12-28T10:00:50;10.70;99.90
75262;DHT22;63859;51.064;4.580;2023-12-28T10:03:17;10.70;99.90
75262;DHT22;63859;51.064;4.580;2023-12-28T10:05:44;10.70;99.90
75262;DHT22;63859;51.064;4.580;2023-12-28T10:08:14;10.80;99.90
75262;DHT22;63859;51.064;4.580;2023-12-28T10:10:41;10.80;99.90
75262;DHT22;63859;51.064;4.580;2023-12-28T10:13:08;10.80;99.90
75262;DHT22;63859;51.064;4.580;2023-12-28T10:15:35;10.80;99.90
75262;DHT22;63859;51.064;4.580;2023-12-28T10:18:01;10.80;99.90
75262;DHT22;63859;51.064;4.580;2023-12-28T10:20:28;10.80;99.90
75262;DHT22;63859;51.064;4.580;2023-12-28T10:22:53;10.80;99.90
75262;DHT22;63859;51.064;4.580;2023-12-28T10:27:45;10.90;99.90
75262;DHT22;63859;51.064;4.580;2023-12-28T10:30:11;10.90;99.90
75262;DHT22;63859;51.064;4.580;2023-12-28T10:32:40;10.90;99.90
75262;DHT22;63859;51.064;4.580;2023-12-28T10:35:06;10.90;99.90
75262;DHT22;63859;51.064;4.580;2023-12-28T10:37:32;10.90;99.90
75262;DHT22;63859;51.064;4.580;2023-12-28T10:40:05;10.90;99.90
75262;DHT22;63859;51.064;4.580;2023-12-28T10:42:49;11.00;99.90
75262;DHT22;63859;51.064;4.580;2023-12-28T10:45:16;11.00;99.90
75262;DHT22;63859;51.064;4.580;2023-12-28T10:47:53;11.00;99.90
75262;DHT22;63859;51.064;4.580;2023-12-28T10:50:20;11.00;99.90
75262;DHT22;63859;51.064;4.580;2023-12-28T10:52:51;11.10;99.90
75262;DHT22;63859;51.064;4.580;2023-12-28T10:56:25;11.10;99.90
75262;DHT22;63859;51.064;4.580;2023-12-28T10:58:39;11.20;99.90
75262;DHT22;63859;51.064;4.580;2023-12-28T11:01:09;11.20;99.90
75262;DHT22;63859;51.064;4.580;2023-12-28T11:03:38;11.20;99.90
75262;DHT22;63859;51.064;4.580;2023-12-28T11:06:07;11.20;99.90
75262;DHT22;63859;51.064;4.580;2023-12-28T11:08:34;11.20;99.90
75262;DHT22;63859;51.064;4.580;2023-12-28T11:11:01;11.20;99.90
75262;DHT22;63859;51.064;4.580;2023-12-28T11:15:59;11.20;99.90
75262;DHT22;63859;51.064;4.580;2023-12-28T11:18:26;11.10;99.90
75262;DHT22;63859;51.064;4.580;2023-12-28T11:20:54;11.10;99.90
75262;DHT22;63859;51.064;4.580;2023-12-28T11:23:20;11.10;99.90
75262;DHT22;63859;51.064;4.580;2023-12-28T11:25:45;11.10;99.90
75262;DHT22;63859;51.064;4.580;2023-12-28T11:28:12;11.20;99.90
75262;DHT22;63859;51.064;4.580;2023-12-28T11:30:41;11.20;99.90
75262;DHT22;63859;51.064;4.580;2023-12-28T11:33:10;11.20;99.90
75262;DHT22;63859;51.064;4.580;2023-12-28T11:35:39;11.20;99.90
75262;DHT22;63859;51.064;4.580;2023-12-28T11:38:08;11.20;99.90
75262;DHT22;63859;51.064;4.580;2023-12-28T11:40:47;11.30;99.90
75262;DHT22;63859;51.064;4.580;2023-12-28T11:43:20;11.30;99.90
75262;DHT22;63859;51.064;4.580;2023-12-28T11:45:51;11.30;99.90
75262;DHT22;63859;51.064;4.580;2023-12-28T11:48:27;11.30;99.90
75262;DHT22;63859;51.064;4.580;2023-12-28T11:51:00;11.30;99.90
75262;DHT22;63859;51.064;4.580;2023-12-28T11:53:26;11.40;99.90
75262;DHT22;63859;51.064;4.580;2023-12-28T11:55:52;11.40;99.90
75262;DHT22;63859;51.064;4.580;2023-12-28T11:58:19;11.40;99.90
75262;DHT22;63859;51.064;4.580;2023-12-28T12:00:45;11.30;99.90
75262;DHT22;63859;51.064;4.580;2023-12-28T12:03:12;11.40;99.90
75262;DHT22;63859;51.064;4.580;2023-12-28T12:05:38;11.40;99.90
75262;DHT22;63859;51.064;4.580;2023-12-28T12:08:05;11.40;99.90
75262;DHT22;63859;51.064;4.580;2023-12-28T12:10:31;11.40;99.90
75262;DHT22;63859;51.064;4.580;2023-12-28T12:12:57;11.40;99.90
75262;DHT22;63859;51.064;4.580;2023-12-28T12:15:23;11.40;99.90
75262;DHT22;63859;51.064;4.580;2023-12-28T12:17:49;11.40;99.90
75262;DHT22;63859;51.064;4.580;2023-12-28T12:20:15;11.40;99.90
75262;DHT22;63859;51.064;4.580;2023-12-28T12:25:08;11.50;99.90
75262;DHT22;63859;51.064;4.580;2023-12-28T12:27:36;11.50;99.90
75262;DHT22;63859;51.064;4.580;2023-12-28T12:30:02;11.50;99.90
75262;DHT22;63859;51.064;4.580;2023-12-28T12:32:28;11.50;99.90
75262;DHT22;63859;51.064;4.580;2023-12-28T12:34:55;11.50;99.90
75262;DHT22;63859;51.064;4.580;2023-12-28T12:37:21;11.50;99.90
75262;DHT22;63859;51.064;4.580;2023-12-28T12:39:46;11.60;99.90
75262;DHT22;63859;51.064;4.580;2023-12-28T12:42:15;11.60;99.90
75262;DHT22;63859;51.064;4.580;2023-12-28T12:44:42;11.60;99.90
75262;DHT22;63859;51.064;4.580;2023-12-28T12:47:08;11.60;99.90
75262;DHT22;63859;51.064;4.580;2023-12-28T12:49:33;11.60;99.90
75262;DHT22;63859;51.064;4.580;2023-12-28T12:52:00;11.60;99.90
75262;DHT22;63859;51.064;4.580;2023-12-28T12:54:26;11.60;99.90
75262;DHT22;63859;51.064;4.580;2023-12-28T12:56:52;11.60;99.90
75262;DHT22;63859;51.064;4.580;2023-12-28T12:59:18;11.60;99.90
75262;DHT22;63859;51.064;4.580;2023-12-28T13:01:44;11.60;99.90
75262;DHT22;63859;51.064;4.580;2023-12-28T13:04:10;11.60;99.90
75262;DHT22;63859;51.064;4.580;2023-12-28T13:06:37;11.60;99.90
75262;DHT22;63859;51.064;4.580;2023-12-28T13:09:04;11.60;99.90
75262;DHT22;63859;51.064;4.580;2023-12-28T13:11:35;11.60;99.90
75262;DHT22;63859;51.064;4.580;2023-12-28T13:14:00;11.60;99.90
75262;DHT22;63859;51.064;4.580;2023-12-28T13:16:26;11.60;99.90
75262;DHT22;63859;51.064;4.580;2023-12-28T13:18:52;11.60;99.90
75262;DHT22;63859;51.064;4.580;2023-12-28T13:21:17;11.60;99.90
75262;DHT22;63859;51.064;4.580;2023-12-28T13:23:43;11.60;99.90
75262;DHT22;63859;51.064;4.580;2023-12-28T13:26:09;11.60;99.90
75262;DHT22;63859;51.064;4.580;2023-12-28T13:28:35;11.60;99.90
75262;DHT22;63859;51.064;4.580;2023-12-28T13:31:00;11.60;99.90
75262;DHT22;63859;51.064;4.580;2023-12-28T13:33:26;11.60;99.90
75262;DHT22;63859;51.064;4.580;2023-12-28T13:35:51;11.60;99.90
75262;DHT22;63859;51.064;4.580;2023-12-28T13:38:18;11.60;99.90
75262;DHT22;63859;51.064;4.580;2023-12-28T13:40:43;11.60;99.90
75262;DHT22;63859;51.064;4.580;2023-12-28T13:43:09;11.60;99.90
75262;DHT22;63859;51.064;4.580;2023-12-28T13:45:35;11.60;99.90
75262;DHT22;63859;51.064;4.580;2023-12-28T13:48:01;11.60;99.90
75262;DHT22;63859;51.064;4.580;2023-12-28T13:50:27;11.60;99.90
75262;DHT22;63859;51.064;4.580;2023-12-28T13:52:53;11.50;99.90
75262;DHT22;63859;51.064;4.580;2023-12-28T13:55:19;11.50;99.90
75262;DHT22;63859;51.064;4.580;2023-12-28T13:57:45;11.50;99.90
75262;DHT22;63859;51.064;4.580;2023-12-28T14:00:11;11.50;99.90
75262;DHT22;63859;51.064;4.580;2023-12-28T14:02:37;11.50;99.90
75262;DHT22;63859;51.064;4.580;2023-12-28T14:05:03;11.50;99.90
75262;DHT22;63859;51.064;4.580;2023-12-28T14:07:29;11.50;99.90
75262;DHT22;63859;51.064;4.580;2023-12-28T14:09:54;11.50;99.90
75262;DHT22;63859;51.064;4.580;2023-12-28T14:12:20;11.50;99.90
75262;DHT22;63859;51.064;4.580;2023-12-28T14:14:45;11.50;99.90
75262;DHT22;63859;51.064;4.580;2023-12-28T14:17:11;11.50;99.90
75262;DHT22;63859;51.064;4.580;2023-12-28T14:19:37;11.50;99.90
75262;DHT22;63859;51.064;4.580;2023-12-28T14:22:02;11.50;99.90
75262;DHT22;63859;51.064;4.580;2023-12-28T14:24:28;11.50;99.90
75262;DHT22;63859;51.064;4.580;2023-12-28T14:26:55;11.40;99.90
75262;DHT22;63859;51.064;4.580;2023-12-28T14:29:23;11.40;99.90
75262;DHT22;63859;51.064;4.580;2023-12-28T14:31:50;11.40;99.90
75262;DHT22;63859;51.064;4.580;2023-12-28T14:34:16;11.40;99.90
75262;DHT22;63859;51.064;4.580;2023-12-28T14:36:44;11.40;99.90
75262;DHT22;63859;51.064;4.580;2023-12-28T14:39:15;11.40;99.90
75262;DHT22;63859;51.064;4.580;2023-12-28T14:41:43;11.40;99.90
75262;DHT22;63859;51.064;4.580;2023-12-28T14:44:09;11.30;99.90
75262;DHT22;63859;51.064;4.580;2023-12-28T14:49:01;11.30;99.90
75262;DHT22;63859;51.064;4.580;2023-12-28T14:51:29;11.30;99.90
75262;DHT22;63859;51.064;4.580;2023-12-28T14:53:54;11.30;99.90
75262;DHT22;63859;51.064;4.580;2023-12-28T14:56:20;11.30;99.90
75262;DHT22;63859;51.064;4.580;2023-12-28T14:58:46;11.30;99.90
75262;DHT22;63859;51.064;4.580;2023-12-28T15:01:17;11.20;99.90
75262;DHT22;63859;51.064;4.580;2023-12-28T15:03:43;11.20;99.90
75262;DHT22;63859;51.064;4.580;2023-12-28T15:06:09;11.20;99.90
75262;DHT22;63859;51.064;4.580;2023-12-28T15:08:38;11.20;99.90
75262;DHT22;63859;51.064;4.580;2023-12-28T15:11:04;11.20;99.90
75262;DHT22;63859;51.064;4.580;2023-12-28T15:13:33;11.20;99.90
75262;DHT22;63859;51.064;4.580;2023-12-28T15:15:59;11.10;99.90
75262;DHT22;63859;51.064;4.580;2023-12-28T15:18:26;11.10;99.90
75262;DHT22;63859;51.064;4.580;2023-12-28T15:20:51;11.10;99.90
75262;DHT22;63859;51.064;4.580;2023-12-28T15:23:18;11.10;99.90
75262;DHT22;63859;51.064;4.580;2023-12-28T15:25:46;11.10;99.90
75262;DHT22;63859;51.064;4.580;2023-12-28T15:28:12;11.10;99.90
75262;DHT22;63859;51.064;4.580;2023-12-28T15:30:38;11.00;99.90
75262;DHT22;63859;51.064;4.580;2023-12-28T15:33:04;11.00;99.90
75262;DHT22;63859;51.064;4.580;2023-12-28T15:35:30;11.00;99.90
75262;DHT22;63859;51.064;4.580;2023-12-28T15:37:56;11.00;99.90
75262;DHT22;63859;51.064;4.580;2023-12-28T15:40:22;11.00;99.90